sensor_id;sensor_type;location;lat;lon;timestamp;temperature;humidity
35692;DHT22;26978;44.830;-0.674;2022-12-10T00:01:39;0.40;99.90
35692;DHT22;26978;44.830;-0.674;2022-12-10T00:04:04;0.40;99.90
35692;DHT22;26978;44.830;-0.674;2022-12-10T00:06:31;0.40;99.90
35692;DHT22;26978;44.830;-0.674;2022-12-10T00:08:58;0.40;99.90
35692;DHT22;26978;44.830;-0.674;2022-12-10T00:11:24;0.30;99.90
35692;DHT22;26978;44.830;-0.674;2022-12-10T00:13:50;0.20;99.90
35692;DHT22;26978;44.830;-0.674;2022-12-10T00:16:17;0.20;99.90
35692;DHT22;26978;44.830;-0.674;2022-12-10T00:18:43;0.30;99.90
35692;DHT22;26978;44.830;-0.674;2022-12-10T00:21:09;0.20;99.90
35692;DHT22;26978;44.830;-0.674;2022-12-10T00:23:35;0.20;99.90
35692;DHT22;26978;44.830;-0.674;2022-12-10T00:26:23;0.20;99.90
35692;DHT22;26978;44.830;-0.674;2022-12-10T00:28:47;0.20;99.90
35692;DHT22;26978;44.830;-0.674;2022-12-10T00:31:15;0.10;99.90
35692;DHT22;26978;44.830;-0.674;2022-12-10T00:33:41;0.20;99.90
35692;DHT22;26978;44.830;-0.674;2022-12-10T00:36:08;0.10;99.90
35692;DHT22;26978;44.830;-0.674;2022-12-10T00:38:34;0.10;99.90
35692;DHT22;26978;44.830;-0.674;2022-12-10T00:41:00;0.20;99.90
35692;DHT22;26978;44.830;-0.674;2022-12-10T00:43:26;0.10;99.90
35692;DHT22;26978;44.830;-0.674;2022-12-10T00:45:52;0.10;99.90
35692;DHT22;26978;44.830;-0.674;2022-12-10T00:48:17;0.10;99.90
35692;DHT22;26978;44.830;-0.674;2022-12-10T00:50:43;0.10;99.90
35692;DHT22;26978;44.830;-0.674;2022-12-10T00:53:08;0.10;99.90
35692;DHT22;26978;44.830;-0.674;2022-12-10T00:55:34;0.00;99.90
35692;DHT22;26978;44.830;-0.674;2022-12-10T00:57:59;0.00;99.90
35692;DHT22;26978;44.830;-0.674;2022-12-10T01:00:25;0.00;99.90
35692;DHT22;26978;44.830;-0.674;2022-12-10T01:02:50;0.00;99.90
35692;DHT22;26978;44.830;-0.674;2022-12-10T01:05:16;0.10;99.90
35692;DHT22;26978;44.830;-0.674;2022-12-10T01:07:42;0.10;99.90
35692;DHT22;26978;44.830;-0.674;2022-12-10T01:10:08;0.10;99.90
35692;DHT22;26978;44.830;-0.674;2022-12-10T01:12:33;0.20;99.90
35692;DHT22;26978;44.830;-0.674;2022-12-10T01:14:59;0.10;99.90
35692;DHT22;26978;44.830;-0.674;2022-12-10T01:17:24;0.10;99.90
35692;DHT22;26978;44.830;-0.674;2022-12-10T01:19:50;0.10;99.90
35692;DHT22;26978;44.830;-0.674;2022-12-10T01:22:15;0.00;99.90
35692;DHT22;26978;44.830;-0.674;2022-12-10T01:24:41;0.00;99.90
35692;DHT22;26978;44.830;-0.674;2022-12-10T01:27:06;-0.10;99.90
35692;DHT22;26978;44.830;-0.674;2022-12-10T01:29:32;0.00;99.90
35692;DHT22;26978;44.830;-0.674;2022-12-10T01:31:58;0.00;99.90
35692;DHT22;26978;44.830;-0.674;2022-12-10T01:34:23;-0.10;99.90
35692;DHT22;26978;44.830;-0.674;2022-12-10T01:36:50;0.00;99.90
35692;DHT22;26978;44.830;-0.674;2022-12-10T01:39:16;-0.10;99.90
35692;DHT22;26978;44.830;-0.674;2022-12-10T01:41:43;-0.10;99.90
35692;DHT22;26978;44.830;-0.674;2022-12-10T01:46:35;-0.10;99.90
35692;DHT22;26978;44.830;-0.674;2022-12-10T01:49:03;-0.10;99.90
35692;DHT22;26978;44.830;-0.674;2022-12-10T01:51:31;-0.10;99.90
35692;DHT22;26978;44.830;-0.674;2022-12-10T01:53:58;-0.10;99.90
35692;DHT22;26978;44.830;-0.674;2022-12-10T01:56:23;-0.20;99.90
35692;DHT22;26978;44.830;-0.674;2022-12-10T01:58:53;-0.10;99.90
35692;DHT22;26978;44.830;-0.674;2022-12-10T02:06:39;-0.30;99.90
35692;DHT22;26978;44.830;-0.674;2022-12-10T02:09:19;-0.30;99.90
35692;DHT22;26978;44.830;-0.674;2022-12-10T02:14:19;-0.30;99.90
35692;DHT22;26978;44.830;-0.674;2022-12-10T02:16:49;-0.20;99.90
35692;DHT22;26978;44.830;-0.674;2022-12-10T02:19:24;-0.30;99.90
35692;DHT22;26978;44.830;-0.674;2022-12-10T02:21:51;-0.30;99.90
35692;DHT22;26978;44.830;-0.674;2022-12-10T02:24:23;-0.30;99.90
35692;DHT22;26978;44.830;-0.674;2022-12-10T02:27:06;-0.30;99.90
35692;DHT22;26978;44.830;-0.674;2022-12-10T02:29:36;-0.20;99.90
35692;DHT22;26978;44.830;-0.674;2022-12-10T02:32:03;-0.30;99.90
35692;DHT22;26978;44.830;-0.674;2022-12-10T02:34:38;-0.30;99.90
35692;DHT22;26978;44.830;-0.674;2022-12-10T02:37:06;-0.30;99.90
35692;DHT22;26978;44.830;-0.674;2022-12-10T02:39:34;-0.40;99.90
35692;DHT22;26978;44.830;-0.674;2022-12-10T02:42:01;-0.30;99.90
35692;DHT22;26978;44.830;-0.674;2022-12-10T02:44:28;-0.50;99.90
35692;DHT22;26978;44.830;-0.674;2022-12-10T02:46:55;-0.50;99.90
35692;DHT22;26978;44.830;-0.674;2022-12-10T02:49:20;-0.40;99.90
35692;DHT22;26978;44.830;-0.674;2022-12-10T02:51:47;-0.40;99.90
35692;DHT22;26978;44.830;-0.674;2022-12-10T02:56:58;-0.40;99.90
35692;DHT22;26978;44.830;-0.674;2022-12-10T02:59:28;-0.40;99.90
35692;DHT22;26978;44.830;-0.674;2022-12-10T03:04:24;-0.30;99.90
35692;DHT22;26978;44.830;-0.674;2022-12-10T03:06:56;-0.40;99.90
35692;DHT22;26978;44.830;-0.674;2022-12-10T03:09:24;-0.40;99.90
35692;DHT22;26978;44.830;-0.674;2022-12-10T03:11:55;-0.40;99.90
35692;DHT22;26978;44.830;-0.674;2022-12-10T03:14:24;-0.40;99.90
35692;DHT22;26978;44.830;-0.674;2022-12-10T03:16:53;-0.30;99.90
35692;DHT22;26978;44.830;-0.674;2022-12-10T03:19:20;-0.30;99.90
35692;DHT22;26978;44.830;-0.674;2022-12-10T03:21:47;-0.30;99.90
35692;DHT22;26978;44.830;-0.674;2022-12-10T03:24:13;-0.30;99.90
35692;DHT22;26978;44.830;-0.674;2022-12-10T03:26:40;-0.40;99.90
35692;DHT22;26978;44.830;-0.674;2022-12-10T03:29:27;-0.30;99.90
35692;DHT22;26978;44.830;-0.674;2022-12-10T03:31:53;-0.40;99.90
35692;DHT22;26978;44.830;-0.674;2022-12-10T03:34:20;-0.50;99.90
35692;DHT22;26978;44.830;-0.674;2022-12-10T03:36:45;-0.50;99.90
35692;DHT22;26978;44.830;-0.674;2022-12-10T03:39:11;-0.50;99.90
35692;DHT22;26978;44.830;-0.674;2022-12-10T03:41:37;-0.60;99.90
35692;DHT22;26978;44.830;-0.674;2022-12-10T03:44:03;-0.50;99.90
35692;DHT22;26978;44.830;-0.674;2022-12-10T03:46:29;-0.60;99.90
35692;DHT22;26978;44.830;-0.674;2022-12-10T03:48:56;-0.70;99.90
35692;DHT22;26978;44.830;-0.674;2022-12-10T03:51:22;-0.70;99.90
35692;DHT22;26978;44.830;-0.674;2022-12-10T03:53:47;-0.60;99.90
35692;DHT22;26978;44.830;-0.674;2022-12-10T03:56:15;-0.70;99.90
35692;DHT22;26978;44.830;-0.674;2022-12-10T03:58:40;-0.60;99.90
35692;DHT22;26978;44.830;-0.674;2022-12-10T04:01:06;-0.70;99.90
35692;DHT22;26978;44.830;-0.674;2022-12-10T04:03:35;-0.70;99.90
35692;DHT22;26978;44.830;-0.674;2022-12-10T04:06:05;-0.70;99.90
35692;DHT22;26978;44.830;-0.674;2022-12-10T04:08:31;-0.70;99.90
35692;DHT22;26978;44.830;-0.674;2022-12-10T04:11:07;-0.70;99.90
35692;DHT22;26978;44.830;-0.674;2022-12-10T04:13:33;-0.80;99.90
35692;DHT22;26978;44.830;-0.674;2022-12-10T04:16:17;-0.90;99.90
35692;DHT22;26978;44.830;-0.674;2022-12-10T04:18:56;-0.90;99.90
35692;DHT22;26978;44.830;-0.674;2022-12-10T04:21:22;-0.90;99.90
35692;DHT22;26978;44.830;-0.674;2022-12-10T04:24:07;-0.90;99.90
35692;DHT22;26978;44.830;-0.674;2022-12-10T04:26:51;-0.90;99.90
35692;DHT22;26978;44.830;-0.674;2022-12-10T04:29:18;-1.00;99.90
35692;DHT22;26978;44.830;-0.674;2022-12-10T04:31:43;-1.00;99.90
35692;DHT22;26978;44.830;-0.674;2022-12-10T04:34:09;-1.00;99.90
35692;DHT22;26978;44.830;-0.674;2022-12-10T04:36:34;-1.00;99.90
35692;DHT22;26978;44.830;-0.674;2022-12-10T04:39:00;-1.00;99.90
35692;DHT22;26978;44.830;-0.674;2022-12-10T04:41:29;-1.10;99.90
35692;DHT22;26978;44.830;-0.674;2022-12-10T04:43:54;-1.10;99.90
35692;DHT22;26978;44.830;-0.674;2022-12-10T04:46:20;-1.10;99.90
35692;DHT22;26978;44.830;-0.674;2022-12-10T04:48:46;-1.10;99.90
35692;DHT22;26978;44.830;-0.674;2022-12-10T04:51:11;-1.10;99.90
35692;DHT22;26978;44.830;-0.674;2022-12-10T04:53:37;-1.20;99.90
35692;DHT22;26978;44.830;-0.674;2022-12-10T04:56:02;-1.20;99.90
35692;DHT22;26978;44.830;-0.674;2022-12-10T04:58:30;-1.30;99.90
35692;DHT22;26978;44.830;-0.674;2022-12-10T05:01:03;-1.20;99.90
35692;DHT22;26978;44.830;-0.674;2022-12-10T05:03:28;-1.20;99.90
35692;DHT22;26978;44.830;-0.674;2022-12-10T05:05:54;-1.20;99.90
35692;DHT22;26978;44.830;-0.674;2022-12-10T05:08:20;-1.20;99.90
35692;DHT22;26978;44.830;-0.674;2022-12-10T05:10:45;-1.20;99.90
35692;DHT22;26978;44.830;-0.674;2022-12-10T05:13:11;-1.30;99.90
35692;DHT22;26978;44.830;-0.674;2022-12-10T05:15:39;-1.30;99.90
35692;DHT22;26978;44.830;-0.674;2022-12-10T05:18:05;-1.30;99.90
35692;DHT22;26978;44.830;-0.674;2022-12-10T05:20:31;-1.30;99.90
35692;DHT22;26978;44.830;-0.674;2022-12-10T05:22:56;-1.40;99.90
35692;DHT22;26978;44.830;-0.674;2022-12-10T05:25:40;-1.40;99.90
35692;DHT22;26978;44.830;-0.674;2022-12-10T05:28:19;-1.40;99.90
35692;DHT22;26978;44.830;-0.674;2022-12-10T05:30:45;-1.50;99.90
35692;DHT22;26978;44.830;-0.674;2022-12-10T05:33:10;-1.50;99.90
35692;DHT22;26978;44.830;-0.674;2022-12-10T05:35:36;-1.60;99.90
35692;DHT22;26978;44.830;-0.674;2022-12-10T05:38:01;-1.60;99.90
35692;DHT22;26978;44.830;-0.674;2022-12-10T05:40:27;-1.60;99.90
35692;DHT22;26978;44.830;-0.674;2022-12-10T05:42:52;-1.60;99.90
35692;DHT22;26978;44.830;-0.674;2022-12-10T05:45:18;-1.60;99.90
35692;DHT22;26978;44.830;-0.674;2022-12-10T05:47:44;-1.60;99.90
35692;DHT22;26978;44.830;-0.674;2022-12-10T05:50:09;-1.70;99.90
35692;DHT22;26978;44.830;-0.674;2022-12-10T05:52:35;-1.70;99.90
35692;DHT22;26978;44.830;-0.674;2022-12-10T05:55:00;-1.70;99.90
35692;DHT22;26978;44.830;-0.674;2022-12-10T05:57:26;-1.60;99.90
35692;DHT22;26978;44.830;-0.674;2022-12-10T05:59:51;-1.60;99.90
35692;DHT22;26978;44.830;-0.674;2022-12-10T06:02:17;-1.60;99.90
35692;DHT22;26978;44.830;-0.674;2022-12-10T06:04:42;-1.70;99.90
35692;DHT22;26978;44.830;-0.674;2022-12-10T06:07:08;-1.70;99.90
35692;DHT22;26978;44.830;-0.674;2022-12-10T06:09:33;-1.70;99.90
35692;DHT22;26978;44.830;-0.674;2022-12-10T06:11:59;-1.80;99.90
35692;DHT22;26978;44.830;-0.674;2022-12-10T06:14:24;-1.80;99.90
35692;DHT22;26978;44.830;-0.674;2022-12-10T06:16:50;-1.80;99.90
35692;DHT22;26978;44.830;-0.674;2022-12-10T06:19:16;-1.90;99.90
35692;DHT22;26978;44.830;-0.674;2022-12-10T06:21:41;-1.80;99.90
35692;DHT22;26978;44.830;-0.674;2022-12-10T06:24:07;-1.80;99.90
35692;DHT22;26978;44.830;-0.674;2022-12-10T06:26:32;-1.80;99.90
35692;DHT22;26978;44.830;-0.674;2022-12-10T06:28:58;-1.80;99.90
35692;DHT22;26978;44.830;-0.674;2022-12-10T06:31:25;-1.90;99.90
35692;DHT22;26978;44.830;-0.674;2022-12-10T06:33:51;-1.90;99.90
35692;DHT22;26978;44.830;-0.674;2022-12-10T06:36:18;-2.00;99.90
35692;DHT22;26978;44.830;-0.674;2022-12-10T06:38:44;-2.00;99.90
35692;DHT22;26978;44.830;-0.674;2022-12-10T06:41:10;-2.00;99.90
35692;DHT22;26978;44.830;-0.674;2022-12-10T06:43:36;-2.00;99.90
35692;DHT22;26978;44.830;-0.674;2022-12-10T06:46:06;-2.00;99.90
35692;DHT22;26978;44.830;-0.674;2022-12-10T06:48:32;-1.90;99.90
35692;DHT22;26978;44.830;-0.674;2022-12-10T06:50:57;-1.90;99.90
35692;DHT22;26978;44.830;-0.674;2022-12-10T06:53:23;-2.00;99.90
35692;DHT22;26978;44.830;-0.674;2022-12-10T06:55:48;-2.00;99.90
35692;DHT22;26978;44.830;-0.674;2022-12-10T06:58:14;-2.00;99.90
35692;DHT22;26978;44.830;-0.674;2022-12-10T07:00:39;-2.00;99.90
35692;DHT22;26978;44.830;-0.674;2022-12-10T07:03:05;-2.00;99.90
35692;DHT22;26978;44.830;-0.674;2022-12-10T07:05:30;-2.00;99.90
35692;DHT22;26978;44.830;-0.674;2022-12-10T07:07:56;-2.00;99.90
35692;DHT22;26978;44.830;-0.674;2022-12-10T07:10:22;-2.10;99.90
35692;DHT22;26978;44.830;-0.674;2022-12-10T07:12:47;-2.10;99.90
35692;DHT22;26978;44.830;-0.674;2022-12-10T07:15:13;-2.10;99.90
35692;DHT22;26978;44.830;-0.674;2022-12-10T07:17:38;-2.10;99.90
35692;DHT22;26978;44.830;-0.674;2022-12-10T07:20:04;-2.10;99.90
35692;DHT22;26978;44.830;-0.674;2022-12-10T07:22:30;-2.10;99.90
35692;DHT22;26978;44.830;-0.674;2022-12-10T07:24:55;-2.10;99.90
35692;DHT22;26978;44.830;-0.674;2022-12-10T07:27:21;-2.00;99.90
35692;DHT22;26978;44.830;-0.674;2022-12-10T07:29:47;-2.00;99.90
35692;DHT22;26978;44.830;-0.674;2022-12-10T07:32:12;-2.10;99.90
35692;DHT22;26978;44.830;-0.674;2022-12-10T07:34:38;-2.10;99.90
35692;DHT22;26978;44.830;-0.674;2022-12-10T07:37:03;-2.20;99.90
35692;DHT22;26978;44.830;-0.674;2022-12-10T07:39:29;-2.10;99.90
35692;DHT22;26978;44.830;-0.674;2022-12-10T07:41:55;-2.10;99.90
35692;DHT22;26978;44.830;-0.674;2022-12-10T07:44:25;-2.10;99.90
35692;DHT22;26978;44.830;-0.674;2022-12-10T07:46:51;-2.10;99.90
35692;DHT22;26978;44.830;-0.674;2022-12-10T07:49:17;-2.10;99.90
35692;DHT22;26978;44.830;-0.674;2022-12-10T07:51:44;-2.00;99.90
35692;DHT22;26978;44.830;-0.674;2022-12-10T07:54:09;-2.10;99.90
35692;DHT22;26978;44.830;-0.674;2022-12-10T07:56:35;-2.10;99.90
35692;DHT22;26978;44.830;-0.674;2022-12-10T07:59:01;-2.10;99.90
35692;DHT22;26978;44.830;-0.674;2022-12-10T08:01:26;-2.10;99.90
35692;DHT22;26978;44.830;-0.674;2022-12-10T08:03:53;-2.10;99.90
35692;DHT22;26978;44.830;-0.674;2022-12-10T08:06:19;-2.00;99.90
35692;DHT22;26978;44.830;-0.674;2022-12-10T08:08:45;-2.00;99.90
35692;DHT22;26978;44.830;-0.674;2022-12-10T08:11:11;-2.00;99.90
35692;DHT22;26978;44.830;-0.674;2022-12-10T08:13:37;-1.90;99.90
35692;DHT22;26978;44.830;-0.674;2022-12-10T08:16:21;-1.90;99.90
35692;DHT22;26978;44.830;-0.674;2022-12-10T08:18:48;-1.90;99.90
35692;DHT22;26978;44.830;-0.674;2022-12-10T08:21:18;-1.80;99.90
35692;DHT22;26978;44.830;-0.674;2022-12-10T08:23:44;-1.70;99.90
35692;DHT22;26978;44.830;-0.674;2022-12-10T08:26:11;-1.70;99.90
35692;DHT22;26978;44.830;-0.674;2022-12-10T08:28:37;-1.60;99.90
35692;DHT22;26978;44.830;-0.674;2022-12-10T08:31:03;-1.60;99.90
35692;DHT22;26978;44.830;-0.674;2022-12-10T08:33:29;-1.50;99.90
35692;DHT22;26978;44.830;-0.674;2022-12-10T08:35:58;-1.50;99.90
35692;DHT22;26978;44.830;-0.674;2022-12-10T08:38:25;-1.40;99.90
35692;DHT22;26978;44.830;-0.674;2022-12-10T08:40:50;-1.40;99.90
35692;DHT22;26978;44.830;-0.674;2022-12-10T08:43:16;-1.30;99.90
35692;DHT22;26978;44.830;-0.674;2022-12-10T08:45:41;-1.30;99.90
35692;DHT22;26978;44.830;-0.674;2022-12-10T08:48:07;-1.20;99.90
35692;DHT22;26978;44.830;-0.674;2022-12-10T08:50:32;-1.10;99.90
35692;DHT22;26978;44.830;-0.674;2022-12-10T08:52:58;-1.00;99.90
35692;DHT22;26978;44.830;-0.674;2022-12-10T08:55:24;-1.00;99.90
35692;DHT22;26978;44.830;-0.674;2022-12-10T08:57:50;-0.80;99.90
35692;DHT22;26978;44.830;-0.674;2022-12-10T09:00:16;-0.70;99.90
35692;DHT22;26978;44.830;-0.674;2022-12-10T09:02:41;-0.60;99.90
35692;DHT22;26978;44.830;-0.674;2022-12-10T09:05:07;-0.60;99.90
35692;DHT22;26978;44.830;-0.674;2022-12-10T09:07:33;-0.50;99.90
35692;DHT22;26978;44.830;-0.674;2022-12-10T09:09:58;-0.40;99.90
35692;DHT22;26978;44.830;-0.674;2022-12-10T09:12:24;-0.30;99.90
35692;DHT22;26978;44.830;-0.674;2022-12-10T09:14:49;-0.30;99.90
35692;DHT22;26978;44.830;-0.674;2022-12-10T09:17:15;-0.20;99.90
35692;DHT22;26978;44.830;-0.674;2022-12-10T09:19:41;-0.20;99.90
35692;DHT22;26978;44.830;-0.674;2022-12-10T09:22:07;-0.10;99.90
35692;DHT22;26978;44.830;-0.674;2022-12-10T09:24:33;0.00;99.90
35692;DHT22;26978;44.830;-0.674;2022-12-10T09:27:00;0.00;99.90
35692;DHT22;26978;44.830;-0.674;2022-12-10T09:29:26;0.10;99.90
35692;DHT22;26978;44.830;-0.674;2022-12-10T09:31:51;0.10;99.90
35692;DHT22;26978;44.830;-0.674;2022-12-10T09:34:17;0.20;99.90
35692;DHT22;26978;44.830;-0.674;2022-12-10T09:36:43;0.20;99.90
35692;DHT22;26978;44.830;-0.674;2022-12-10T09:39:09;0.30;99.90
35692;DHT22;26978;44.830;-0.674;2022-12-10T09:49:19;0.80;99.90
35692;DHT22;26978;44.830;-0.674;2022-12-10T09:51:47;0.80;99.90
35692;DHT22;26978;44.830;-0.674;2022-12-10T09:56:41;0.90;99.90
35692;DHT22;26978;44.830;-0.674;2022-12-10T09:59:13;1.00;99.90
35692;DHT22;26978;44.830;-0.674;2022-12-10T10:01:41;1.10;99.90
35692;DHT22;26978;44.830;-0.674;2022-12-10T10:04:08;1.20;99.90
35692;DHT22;26978;44.830;-0.674;2022-12-10T10:06:33;1.30;99.90
35692;DHT22;26978;44.830;-0.674;2022-12-10T10:09:00;1.30;99.90
35692;DHT22;26978;44.830;-0.674;2022-12-10T10:11:31;1.40;99.90
35692;DHT22;26978;44.830;-0.674;2022-12-10T10:18:59;1.70;99.90
35692;DHT22;26978;44.830;-0.674;2022-12-10T10:21:29;1.70;99.90
35692;DHT22;26978;44.830;-0.674;2022-12-10T10:23:55;1.70;99.90
35692;DHT22;26978;44.830;-0.674;2022-12-10T10:26:23;1.70;99.90
35692;DHT22;26978;44.830;-0.674;2022-12-10T10:28:49;1.90;99.90
35692;DHT22;26978;44.830;-0.674;2022-12-10T10:31:20;2.00;99.90
35692;DHT22;26978;44.830;-0.674;2022-12-10T10:33:54;1.90;99.90
35692;DHT22;26978;44.830;-0.674;2022-12-10T10:41:42;2.00;99.90
35692;DHT22;26978;44.830;-0.674;2022-12-10T10:44:18;2.00;99.90
35692;DHT22;26978;44.830;-0.674;2022-12-10T10:46:45;2.00;99.90
35692;DHT22;26978;44.830;-0.674;2022-12-10T10:49:12;2.00;99.90
35692;DHT22;26978;44.830;-0.674;2022-12-10T10:51:41;2.00;99.90
35692;DHT22;26978;44.830;-0.674;2022-12-10T10:54:07;2.20;99.90
35692;DHT22;26978;44.830;-0.674;2022-12-10T10:56:42;2.10;99.90
35692;DHT22;26978;44.830;-0.674;2022-12-10T11:04:09;2.40;99.90
35692;DHT22;26978;44.830;-0.674;2022-12-10T11:06:34;2.40;99.90
35692;DHT22;26978;44.830;-0.674;2022-12-10T11:09:00;2.40;99.90
35692;DHT22;26978;44.830;-0.674;2022-12-10T11:14:02;2.30;99.90
35692;DHT22;26978;44.830;-0.674;2022-12-10T11:16:37;2.30;99.90
35692;DHT22;26978;44.830;-0.674;2022-12-10T11:19:04;2.20;99.90
35692;DHT22;26978;44.830;-0.674;2022-12-10T11:21:31;2.30;99.90
35692;DHT22;26978;44.830;-0.674;2022-12-10T11:23:58;2.20;99.90
35692;DHT22;26978;44.830;-0.674;2022-12-10T11:29:14;2.00;99.90
35692;DHT22;26978;44.830;-0.674;2022-12-10T11:53:06;1.90;99.90
35692;DHT22;26978;44.830;-0.674;2022-12-10T11:56:37;1.90;99.90
35692;DHT22;26978;44.830;-0.674;2022-12-10T11:58:35;1.80;99.90
35692;DHT22;26978;44.830;-0.674;2022-12-10T12:01:06;1.90;99.90
35692;DHT22;26978;44.830;-0.674;2022-12-10T12:07:06;2.10;99.90
35692;DHT22;26978;44.830;-0.674;2022-12-10T12:16:39;2.00;99.90
35692;DHT22;26978;44.830;-0.674;2022-12-10T12:21:37;2.10;99.90
35692;DHT22;26978;44.830;-0.674;2022-12-10T12:24:25;2.00;99.90
35692;DHT22;26978;44.830;-0.674;2022-12-10T12:26:57;2.10;99.90
35692;DHT22;26978;44.830;-0.674;2022-12-10T12:31:56;2.10;99.90
35692;DHT22;26978;44.830;-0.674;2022-12-10T12:36:54;2.20;99.90
35692;DHT22;26978;44.830;-0.674;2022-12-10T12:39:35;2.30;99.90
35692;DHT22;26978;44.830;-0.674;2022-12-10T12:42:13;2.30;99.90
35692;DHT22;26978;44.830;-0.674;2022-12-10T12:49:59;2.40;99.90
35692;DHT22;26978;44.830;-0.674;2022-12-10T12:52:37;2.40;99.90
35692;DHT22;26978;44.830;-0.674;2022-12-10T12:55:06;2.50;99.90
35692;DHT22;26978;44.830;-0.674;2022-12-10T12:57:39;2.10;99.90
35692;DHT22;26978;44.830;-0.674;2022-12-10T13:00:10;2.30;99.90
35692;DHT22;26978;44.830;-0.674;2022-12-10T13:05:31;2.50;99.90
35692;DHT22;26978;44.830;-0.674;2022-12-10T13:10:52;2.70;99.90
35692;DHT22;26978;44.830;-0.674;2022-12-10T13:15:53;2.40;99.90
35692;DHT22;26978;44.830;-0.674;2022-12-10T13:28:32;2.30;99.90
35692;DHT22;26978;44.830;-0.674;2022-12-10T13:33:46;3.00;99.90
35692;DHT22;26978;44.830;-0.674;2022-12-10T13:36:12;3.30;99.90
35692;DHT22;26978;44.830;-0.674;2022-12-10T13:38:41;3.50;99.90
35692;DHT22;26978;44.830;-0.674;2022-12-10T13:41:19;3.30;99.90
35692;DHT22;26978;44.830;-0.674;2022-12-10T13:44:21;3.10;99.90
35692;DHT22;26978;44.830;-0.674;2022-12-10T13:46:56;2.80;99.90
35692;DHT22;26978;44.830;-0.674;2022-12-10T13:49:24;3.30;99.90
35692;DHT22;26978;44.830;-0.674;2022-12-10T14:07:37;3.30;99.90
35692;DHT22;26978;44.830;-0.674;2022-12-10T14:10:04;3.20;99.90
35692;DHT22;26978;44.830;-0.674;2022-12-10T14:12:35;3.10;99.90
35692;DHT22;26978;44.830;-0.674;2022-12-10T14:15:06;3.20;99.90
35692;DHT22;26978;44.830;-0.674;2022-12-10T14:17:34;3.70;99.90
35692;DHT22;26978;44.830;-0.674;2022-12-10T14:20:03;3.80;99.90
35692;DHT22;26978;44.830;-0.674;2022-12-10T14:22:39;3.60;99.90
35692;DHT22;26978;44.830;-0.674;2022-12-10T14:25:12;3.90;99.90
35692;DHT22;26978;44.830;-0.674;2022-12-10T14:27:38;3.70;99.90
35692;DHT22;26978;44.830;-0.674;2022-12-10T14:30:06;3.50;99.90
35692;DHT22;26978;44.830;-0.674;2022-12-10T14:32:36;3.50;99.90
35692;DHT22;26978;44.830;-0.674;2022-12-10T14:35:07;3.60;99.90
35692;DHT22;26978;44.830;-0.674;2022-12-10T14:37:35;3.70;99.90
35692;DHT22;26978;44.830;-0.674;2022-12-10T14:40:01;3.60;99.90
35692;DHT22;26978;44.830;-0.674;2022-12-10T14:42:29;3.70;99.90
35692;DHT22;26978;44.830;-0.674;2022-12-10T14:45:13;3.60;99.90
35692;DHT22;26978;44.830;-0.674;2022-12-10T14:47:39;3.80;99.90
35692;DHT22;26978;44.830;-0.674;2022-12-10T14:50:06;4.40;99.90
35692;DHT22;26978;44.830;-0.674;2022-12-10T14:52:39;4.70;99.90
35692;DHT22;26978;44.830;-0.674;2022-12-10T14:55:05;5.20;99.90
35692;DHT22;26978;44.830;-0.674;2022-12-10T14:57:32;5.30;99.90
35692;DHT22;26978;44.830;-0.674;2022-12-10T15:02:32;5.70;99.90
35692;DHT22;26978;44.830;-0.674;2022-12-10T15:04:58;5.00;99.90
35692;DHT22;26978;44.830;-0.674;2022-12-10T15:07:26;4.80;99.90
35692;DHT22;26978;44.830;-0.674;2022-12-10T15:09:55;4.80;99.90
35692;DHT22;26978;44.830;-0.674;2022-12-10T15:12:29;4.80;99.90
35692;DHT22;26978;44.830;-0.674;2022-12-10T15:14:56;4.80;99.90
35692;DHT22;26978;44.830;-0.674;2022-12-10T15:17:38;5.50;99.90
35692;DHT22;26978;44.830;-0.674;2022-12-10T15:20:26;5.40;99.90
35692;DHT22;26978;44.830;-0.674;2022-12-10T15:22:50;5.70;99.90
35692;DHT22;26978;44.830;-0.674;2022-12-10T15:25:19;4.60;99.90
35692;DHT22;26978;44.830;-0.674;2022-12-10T15:27:59;4.50;99.90
35692;DHT22;26978;44.830;-0.674;2022-12-10T15:30:33;4.40;99.90
35692;DHT22;26978;44.830;-0.674;2022-12-10T15:32:58;4.20;99.90
35692;DHT22;26978;44.830;-0.674;2022-12-10T15:35:25;4.70;99.90
35692;DHT22;26978;44.830;-0.674;2022-12-10T15:37:51;5.00;99.90
35692;DHT22;26978;44.830;-0.674;2022-12-10T15:40:28;4.50;99.90
35692;DHT22;26978;44.830;-0.674;2022-12-10T15:43:20;3.90;99.90
35692;DHT22;26978;44.830;-0.674;2022-12-10T15:45:49;3.40;99.90
35692;DHT22;26978;44.830;-0.674;2022-12-10T15:48:14;3.00;99.90
35692;DHT22;26978;44.830;-0.674;2022-12-10T15:50:41;2.80;99.90
35692;DHT22;26978;44.830;-0.674;2022-12-10T15:53:14;2.50;99.90
35692;DHT22;26978;44.830;-0.674;2022-12-10T15:55:41;2.40;99.90
35692;DHT22;26978;44.830;-0.674;2022-12-10T15:58:11;2.10;99.90
35692;DHT22;26978;44.830;-0.674;2022-12-10T16:00:37;2.00;99.90
35692;DHT22;26978;44.830;-0.674;2022-12-10T16:03:05;1.80;99.90
35692;DHT22;26978;44.830;-0.674;2022-12-10T16:05:33;1.70;99.90
35692;DHT22;26978;44.830;-0.674;2022-12-10T16:08:00;1.60;99.90
35692;DHT22;26978;44.830;-0.674;2022-12-10T16:10:27;1.50;99.90
35692;DHT22;26978;44.830;-0.674;2022-12-10T16:13:00;1.40;99.90
35692;DHT22;26978;44.830;-0.674;2022-12-10T16:15:27;1.30;99.90
35692;DHT22;26978;44.830;-0.674;2022-12-10T16:17:54;1.20;99.90
35692;DHT22;26978;44.830;-0.674;2022-12-10T16:20:22;1.10;99.90
35692;DHT22;26978;44.830;-0.674;2022-12-10T16:22:48;1.00;99.90
35692;DHT22;26978;44.830;-0.674;2022-12-10T16:25:14;0.90;99.90
35692;DHT22;26978;44.830;-0.674;2022-12-10T16:27:40;0.80;99.90
35692;DHT22;26978;44.830;-0.674;2022-12-10T16:30:15;0.80;99.90
35692;DHT22;26978;44.830;-0.674;2022-12-10T16:32:41;0.80;99.90
35692;DHT22;26978;44.830;-0.674;2022-12-10T16:35:07;0.60;99.90
35692;DHT22;26978;44.830;-0.674;2022-12-10T16:37:33;0.60;99.90
35692;DHT22;26978;44.830;-0.674;2022-12-10T16:39:58;0.40;99.90
35692;DHT22;26978;44.830;-0.674;2022-12-10T16:42:24;0.40;99.90
35692;DHT22;26978;44.830;-0.674;2022-12-10T16:44:50;0.30;99.90
35692;DHT22;26978;44.830;-0.674;2022-12-10T16:47:15;0.20;99.90
35692;DHT22;26978;44.830;-0.674;2022-12-10T16:49:41;0.10;99.90
35692;DHT22;26978;44.830;-0.674;2022-12-10T16:52:10;0.00;99.90
35692;DHT22;26978;44.830;-0.674;2022-12-10T16:54:37;0.00;99.90
35692;DHT22;26978;44.830;-0.674;2022-12-10T16:57:04;0.00;99.90
35692;DHT22;26978;44.830;-0.674;2022-12-10T16:59:29;-0.20;99.90
35692;DHT22;26978;44.830;-0.674;2022-12-10T17:01:55;-0.20;99.90
35692;DHT22;26978;44.830;-0.674;2022-12-10T17:04:20;0.00;99.90
35692;DHT22;26978;44.830;-0.674;2022-12-10T17:06:46;0.10;99.90
35692;DHT22;26978;44.830;-0.674;2022-12-10T17:09:12;0.00;99.90
35692;DHT22;26978;44.830;-0.674;2022-12-10T17:11:38;0.00;99.90
35692;DHT22;26978;44.830;-0.674;2022-12-10T17:14:20;0.10;99.90
35692;DHT22;26978;44.830;-0.674;2022-12-10T17:16:46;0.10;99.90
35692;DHT22;26978;44.830;-0.674;2022-12-10T17:19:12;0.00;99.90
35692;DHT22;26978;44.830;-0.674;2022-12-10T17:21:38;0.00;99.90
35692;DHT22;26978;44.830;-0.674;2022-12-10T17:24:03;-0.10;99.90
35692;DHT22;26978;44.830;-0.674;2022-12-10T17:26:30;-0.20;99.90
35692;DHT22;26978;44.830;-0.674;2022-12-10T17:28:59;-0.30;99.90
35692;DHT22;26978;44.830;-0.674;2022-12-10T17:31:26;-0.40;99.90
35692;DHT22;26978;44.830;-0.674;2022-12-10T17:33:52;-0.50;99.90
35692;DHT22;26978;44.830;-0.674;2022-12-10T17:36:18;-0.50;99.90
35692;DHT22;26978;44.830;-0.674;2022-12-10T17:38:43;-0.60;99.90